Terminal Aerodrome Forecast
Issued by NWS

Home | Current Version | Previous Version | Text Only | Print | Product List | Glossary Off
Versions: 1 2 3 4 5 6 7 8 9 10 11 12 13 14 15 16 17 18 19

000
FTUS42 KMHX 271900 AAA
TAFPGV
TAF AMD
KPGV 271902Z 2719/2818 06008KT P6SM SCT035
     FM280700 00000KT 3/4SM BR OVC003
     FM281300 05006KT P6SM SCT030
      AMD LTD TO CLD VIS AND WIND=

USA.gov is the U.S. government's official web portal to all federal, state and local government web resources and services.